Time;durP1;ratioP1;P1;durP2;ratioP2;P2;SDS_P1;SDS_P2;PMS_P1;PMS_P2;Temp;Humidity;BMP_temperature;BMP_pressure;BME280_temperature;BME280_humidity;BME280_pressure;Samples;Min_cycle;Max_cycle;Signal;HPM_P1;HPM_P2
2021/07/01 00:00:56;;;;;;;;;9.67;9.67;;;;;16.56;71.41;101484.81;5034950;28;47276;-72
2021/07/01 00:03:22;;;;;;;;;9.33;9.33;;;;;16.53;71.25;101480.59;5036335;28;45360;-72
2021/07/01 00:05:47;;;;;;;;;8.33;7.67;;;;;16.50;70.87;101476.41;5035416;28;45425;-72
2021/07/01 00:08:13;;;;;;;;;9.00;9.00;;;;;16.46;70.48;101476.78;5028031;28;45330;-72
2021/07/01 00:10:38;;;;;;;;;9.33;8.00;;;;;16.40;70.35;101483.47;5036247;28;45623;-72
2021/07/01 00:13:04;;;;;;;;;12.00;7.33;;;;;16.35;70.92;101483.03;5036348;28;45327;-72
2021/07/01 00:15:32;;;;;;;;;9.00;8.00;;;;;16.31;70.45;101477.16;5027135;28;45459;-73
2021/07/01 00:17:58;;;;;;;;;8.00;8.00;;;;;16.29;70.65;101486.22;5016212;28;45515;-72
2021/07/01 00:20:24;;;;;;;;;9.00;6.33;;;;;16.26;70.79;101476.72;5015957;28;46320;-72
2021/07/01 00:22:51;;;;;;;;;8.67;6.00;;;;;16.24;70.77;101476.03;5015908;28;45458;-65
2021/07/01 00:25:18;;;;;;;;;9.00;9.00;;;;;16.24;70.56;101476.03;5015724;28;45233;-65
2021/07/01 00:27:44;;;;;;;;;6.67;6.33;;;;;16.24;71.05;101478.69;5016018;28;45331;-65
2021/07/01 00:30:11;;;;;;;;;9.33;9.00;;;;;16.25;71.16;101477.69;5015760;28;45354;-66
2021/07/01 00:32:37;;;;;;;;;6.00;6.00;;;;;16.27;71.01;101481.06;5015794;28;45841;-66
2021/07/01 00:35:04;;;;;;;;;8.00;8.00;;;;;16.30;71.21;101475.47;5015988;28;45637;-66
2021/07/01 00:37:32;;;;;;;;;7.67;7.67;;;;;16.31;71.47;101479.81;5015872;28;45560;-66
2021/07/01 00:39:58;;;;;;;;;10.00;8.00;;;;;16.36;71.53;101478.56;5015512;28;46143;-66
2021/07/01 00:42:23;;;;;;;;;9.67;8.00;;;;;16.38;71.66;101479.28;5015718;28;45370;-66
2021/07/01 00:44:49;;;;;;;;;12.33;10.00;;;;;16.40;71.53;101477.31;5015948;28;45419;-65
2021/07/01 00:47:14;;;;;;;;;8.33;8.33;;;;;16.39;70.96;101476.50;5016014;28;45378;-67
2021/07/01 00:49:43;;;;;;;;;7.00;7.00;;;;;16.38;71.25;101477.47;5015827;28;46319;-67
2021/07/01 00:52:08;;;;;;;;;8.33;8.00;;;;;16.37;71.62;101474.94;5015079;28;45511;-65
2021/07/01 00:54:35;;;;;;;;;12.00;7.33;;;;;16.35;71.52;101472.44;5016389;28;45438;-65
2021/07/01 00:57:01;;;;;;;;;9.33;8.00;;;;;16.37;71.30;101469.66;5015687;28;45454;-64
2021/07/01 00:59:27;;;;;;;;;10.67;9.67;;;;;16.37;71.82;101467.81;5015922;28;46350;-63
2021/07/01 01:01:52;;;;;;;;;13.00;11.33;;;;;16.39;71.21;101473.03;5031119;28;45332;-63
2021/07/01 01:04:18;;;;;;;;;11.00;9.00;;;;;16.40;71.50;101477.31;5034110;28;45428;-64
2021/07/01 01:06:44;;;;;;;;;10.00;8.00;;;;;16.39;71.01;101473.84;5035318;28;45407;-65
2021/07/01 01:09:10;;;;;;;;;11.00;9.33;;;;;16.37;71.26;101470.47;5035098;28;45674;-65
2021/07/01 01:11:35;;;;;;;;;8.67;8.00;;;;;16.39;71.27;101475.66;5035364;28;45340;-65
2021/07/01 01:14:01;;;;;;;;;9.67;8.33;;;;;16.36;71.88;101467.97;5035490;28;45425;-64
2021/07/01 01:16:26;;;;;;;;;9.67;9.67;;;;;16.36;71.27;101470.63;5035279;28;45398;-64
2021/07/01 01:18:52;;;;;;;;;9.33;8.67;;;;;16.35;71.71;101469.78;5035164;28;46541;-64
2021/07/01 01:21:24;;;;;;;;;9.67;9.33;;;;;16.32;71.50;101473.53;5020609;28;45628;-64
2021/07/01 01:23:49;;;;;;;;;8.33;8.33;;;;;16.31;71.59;101471.03;5015484;28;45269;-64
2021/07/01 01:26:15;;;;;;;;;9.33;9.33;;;;;16.30;71.46;101464.88;5025469;28;46095;-64
2021/07/01 01:28:41;;;;;;;;;12.33;11.00;;;;;16.28;71.56;101469.50;5035135;28;45578;-64
2021/07/01 01:31:07;;;;;;;;;10.33;9.00;;;;;16.25;71.40;101458.31;5033553;28;45609;-65
2021/07/01 01:33:32;;;;;;;;;13.67;9.33;;;;;16.24;71.82;101468.09;5034938;28;45413;-65
2021/07/01 01:35:58;;;;;;;;;11.67;10.67;;;;;16.23;71.70;101477.00;5034810;28;45458;-64
2021/07/01 01:38:24;;;;;;;;;11.67;11.00;;;;;16.24;72.04;101477.81;5033568;28;46705;-63
2021/07/01 01:40:50;;;;;;;;;11.33;9.00;;;;;16.20;71.90;101474.59;5035072;28;45339;-64
2021/07/01 01:43:18;;;;;;;;;11.00;11.00;;;;;16.20;72.11;101477.25;5035107;28;45489;-64
2021/07/01 01:45:44;;;;;;;;;10.33;9.33;;;;;16.20;72.10;101469.28;5032726;28;45336;-64
2021/07/01 01:48:10;;;;;;;;;12.67;10.00;;;;;16.19;71.99;101475.59;5032875;28;45528;-65
2021/07/01 01:50:36;;;;;;;;;9.33;9.00;;;;;16.19;72.42;101474.72;5026298;28;45340;-63
2021/07/01 01:53:02;;;;;;;;;11.00;11.00;;;;;16.20;72.52;101477.25;5034564;28;45604;-63
2021/07/01 01:55:27;;;;;;;;;11.00;11.00;;;;;16.21;72.22;101472.81;5034394;28;45537;-63
2021/07/01 01:57:53;;;;;;;;;12.00;9.00;;;;;16.21;72.53;101470.97;5034890;28;46377;-61
2021/07/01 02:00:21;;;;;;;;;10.00;8.50;;;;;16.23;72.26;101474.34;5034534;28;45429;-64
2021/07/01 02:02:47;;;;;;;;;12.67;8.33;;;;;16.21;72.44;101473.63;5035597;28;45426;-63
2021/07/01 02:05:13;;;;;;;;;10.00;10.00;;;;;16.20;73.09;101464.00;5029832;28;45401;-63
2021/07/01 02:07:39;;;;;;;;;9.67;9.67;;;;;16.22;72.60;101463.88;5017875;28;46186;-71
2021/07/01 02:10:11;;;;;;;;;13.67;9.33;;;;;16.20;72.14;101457.88;5018277;28;45428;-69
2021/07/01 02:12:37;;;;;;;;;9.67;8.67;;;;;16.18;72.15;101463.31;5018413;28;45264;-71
2021/07/01 02:15:05;;;;;;;;;9.00;9.00;;;;;16.17;72.47;101464.28;5018159;28;45583;-69
2021/07/01 02:17:33;;;;;;;;;9.33;7.00;;;;;16.16;72.29;101457.28;5017636;28;45319;-71
2021/07/01 02:19:59;;;;;;;;;9.67;8.67;;;;;16.13;72.83;101457.56;5017780;28;45443;-70
2021/07/01 02:22:25;;;;;;;;;10.33;9.67;;;;;16.12;72.57;101455.88;5016954;28;45466;-69
2021/07/01 02:24:50;;;;;;;;;11.67;10.00;;;;;16.12;72.68;101461.19;5017160;28;45474;-70
2021/07/01 02:27:15;;;;;;;;;13.67;11.00;;;;;16.09;72.58;101458.81;5017990;28;46190;-70
2021/07/01 02:29:41;;;;;;;;;11.50;10.00;;;;;16.03;72.67;101454.84;5017949;28;45443;-69
2021/07/01 02:32:07;;;;;;;;;13.33;10.67;;;;;16.03;72.43;101467.28;5017653;28;45418;-68
2021/07/01 02:34:39;;;;;;;;;10.33;9.67;;;;;15.97;72.87;101469.47;5017773;28;45402;-70
2021/07/01 02:37:04;;;;;;;;;12.00;11.33;;;;;15.94;72.87;101464.41;5036743;28;45429;-70
2021/07/01 02:39:30;;;;;;;;;12.00;11.00;;;;;15.90;73.16;101457.72;5029292;28;45512;-63
2021/07/01 02:41:55;;;;;;;;;12.67;11.33;;;;;15.89;73.25;101461.31;5033001;28;45346;-63
2021/07/01 02:44:21;;;;;;;;;14.33;13.00;;;;;15.84;73.43;101452.97;5017634;28;45290;-63
2021/07/01 02:46:46;;;;;;;;;6.67;6.67;;;;;15.81;73.50;101455.84;5017076;28;47164;-65
2021/07/01 02:49:12;;;;;;;;;12.33;8.67;;;;;15.77;73.73;101449.09;5017166;28;45364;-65
2021/07/01 02:51:37;;;;;;;;;10.00;10.00;;;;;15.76;73.66;101452.72;5017605;28;45702;-66
2021/07/01 02:54:02;;;;;;;;;12.67;10.00;;;;;15.75;74.22;101451.03;5017802;28;45333;-64
2021/07/01 02:56:39;;;;;;;;;15.33;12.00;;;;;15.74;74.12;101457.31;5015938;28;47178;-65
2021/07/01 02:59:05;;;;;;;;;11.00;9.00;;;;;15.72;73.84;101460.06;5017552;28;45478;-69
2021/07/01 03:01:30;;;;;;;;;16.00;15.00;;;;;15.71;73.92;101453.13;5015764;28;45639;-73
2021/07/01 03:03:56;;;;;;;;;9.33;8.33;;;;;15.71;74.18;101457.56;5017446;28;45636;-69
2021/07/01 03:06:21;;;;;;;;;12.67;10.00;;;;;15.70;73.99;101445.28;5017301;28;46479;-69
2021/07/01 03:08:46;;;;;;;;;13.67;12.67;;;;;15.68;74.27;101448.94;5017325;28;45398;-64
2021/07/01 03:11:12;;;;;;;;;13.00;12.00;;;;;15.67;73.92;101441.94;5017657;28;45706;-66
2021/07/01 03:13:37;;;;;;;;;12.67;12.67;;;;;15.68;73.97;101442.78;5017314;28;45383;-66
2021/07/01 03:16:03;;;;;;;;;14.33;11.67;;;;;15.67;74.15;101451.69;5017082;28;46112;-65
2021/07/01 03:18:28;;;;;;;;;13.00;11.33;;;;;15.65;74.15;101446.53;5031941;28;45505;-65
2021/07/01 03:20:54;;;;;;;;;14.00;11.00;;;;;15.66;74.24;101444.72;5017306;28;45845;-65
2021/07/01 03:23:19;;;;;;;;;12.33;9.67;;;;;15.67;74.18;101447.25;5016998;28;45422;-65
2021/07/01 03:25:44;;;;;;;;;12.33;11.67;;;;;15.68;74.13;101446.28;5033793;28;45516;-65
2021/07/01 03:28:10;;;;;;;;;14.67;12.67;;;;;15.68;74.28;101438.34;5035118;28;45609;-66
2021/07/01 03:30:35;;;;;;;;;11.00;10.67;;;;;15.71;74.24;101441.69;5031543;28;45480;-65
2021/07/01 03:33:00;;;;;;;;;14.33;12.33;;;;;15.71;74.41;101442.53;5016464;28;45304;-65
2021/07/01 03:35:26;;;;;;;;;14.00;14.00;;;;;15.72;74.44;101435.41;5016860;28;46348;-64
2021/07/01 03:37:51;;;;;;;;;16.33;12.33;;;;;15.74;74.45;101438.78;5015502;28;45356;-64
2021/07/01 03:40:17;;;;;;;;;14.33;9.33;;;;;15.73;74.55;101437.94;5016722;28;45570;-64
2021/07/01 03:42:43;;;;;;;;;19.33;15.00;;;;;15.76;74.76;101436.81;5016813;28;45440;-64
2021/07/01 03:45:09;;;;;;;;;10.67;10.00;;;;;15.75;74.73;101437.78;5016243;28;45516;-68
2021/07/01 03:47:35;;;;;;;;;18.00;13.67;;;;;15.75;74.51;101435.13;5014654;28;45577;-68
2021/07/01 03:50:00;;;;;;;;;15.67;11.00;;;;;15.74;74.69;101441.44;5017422;28;45399;-68
2021/07/01 03:52:25;;;;;;;;;12.67;12.67;;;;;15.73;74.95;101439.75;5015016;28;45260;-68
2021/07/01 03:54:51;;;;;;;;;13.33;12.33;;;;;15.75;74.95;101453.69;5016414;28;46290;-68
2021/07/01 03:57:16;;;;;;;;;14.00;14.00;;;;;15.73;74.62;101450.34;5016654;28;45458;-64
2021/07/01 03:59:41;;;;;;;;;13.00;13.00;;;;;15.75;74.68;101449.25;5016250;28;45467;-63
2021/07/01 04:02:07;;;;;;;;;12.67;11.67;;;;;15.74;74.79;101465.28;5015888;28;45461;-64
2021/07/01 04:04:32;;;;;;;;;16.67;14.67;;;;;15.74;74.67;101457.31;5016433;28;45412;-63
2021/07/01 04:06:58;;;;;;;;;19.67;15.00;;;;;15.74;74.56;101452.03;5016416;28;45461;-63
2021/07/01 04:09:23;;;;;;;;;14.00;13.50;;;;;15.73;74.10;101448.53;5016400;28;45393;-62
2021/07/01 04:11:49;;;;;;;;;18.33;17.00;;;;;15.75;74.18;101457.19;5016322;28;45467;-63
2021/07/01 04:14:18;;;;;;;;;15.67;13.00;;;;;15.75;74.55;101453.69;5015943;28;45514;-62
2021/07/01 04:16:45;;;;;;;;;14.67;12.33;;;;;15.76;74.85;101455.38;5022854;28;45490;-63
2021/07/01 04:19:11;;;;;;;;;14.00;13.00;;;;;15.77;74.66;101457.06;5036176;28;45355;-63
2021/07/01 04:21:37;;;;;;;;;13.67;12.33;;;;;15.78;74.86;101448.16;5019436;28;45536;-62
2021/07/01 04:24:02;;;;;;;;;12.67;12.67;;;;;15.79;75.00;101449.84;5016162;28;45460;-63
2021/07/01 04:26:28;;;;;;;;;12.33;12.33;;;;;15.79;75.05;101449.84;5015414;28;45324;-63
2021/07/01 04:28:53;;;;;;;;;16.33;15.33;;;;;15.78;75.14;101448.97;5016017;28;45977;-63
2021/07/01 04:31:20;;;;;;;;;15.67;14.67;;;;;15.79;75.00;101455.94;5015492;28;45588;-67
2021/07/01 04:33:45;;;;;;;;;18.00;14.00;;;;;15.79;75.39;101457.78;5015549;28;45336;-67
2021/07/01 04:36:11;;;;;;;;;22.00;16.00;;;;;15.80;75.37;101451.47;5015552;28;45264;-67
2021/07/01 04:38:36;;;;;;;;;17.67;15.67;;;;;15.82;75.59;101455.72;5015713;28;45325;-68
2021/07/01 04:41:01;;;;;;;;;18.00;13.33;;;;;15.86;75.42;101458.13;5015737;28;45399;-67
2021/07/01 04:43:27;;;;;;;;;16.67;14.33;;;;;15.86;75.21;101466.91;5015486;28;45880;-67
2021/07/01 04:45:52;;;;;;;;;17.00;14.33;;;;;15.88;75.59;101467.63;5014228;28;45575;-67
2021/07/01 04:48:18;;;;;;;;;16.67;14.00;;;;;15.90;75.30;101470.13;5015889;28;45355;-68
2021/07/01 04:50:43;;;;;;;;;12.33;11.67;;;;;15.91;75.64;101469.16;5014286;28;45580;-68
2021/07/01 04:53:08;;;;;;;;;18.00;15.33;;;;;15.95;75.65;101465.28;5014378;28;45563;-67
2021/07/01 04:55:34;;;;;;;;;21.33;16.33;;;;;15.99;75.25;101472.00;5013861;28;45489;-67
2021/07/01 04:57:59;;;;;;;;;16.67;13.00;;;;;16.03;75.26;101468.09;5015799;28;45328;-67
2021/07/01 05:00:25;;;;;;;;;13.33;13.00;;;;;16.07;75.47;101466.03;5014754;28;45291;-71
2021/07/01 05:02:50;;;;;;;;;26.67;15.67;;;;;16.10;75.05;101463.09;5034994;28;46042;-70
2021/07/01 05:05:16;;;;;;;;;17.67;14.67;;;;;16.16;75.06;101468.75;5034846;28;45395;-64
2021/07/01 05:07:45;;;;;;;;;21.00;17.33;;;;;16.23;74.78;101468.19;5050390;28;45406;-65
2021/07/01 05:10:12;;;;;;;;;19.00;17.00;;;;;16.29;74.81;101478.28;5032132;28;45438;-65
2021/07/01 05:12:37;;;;;;;;;16.67;16.00;;;;;16.32;74.22;101478.00;5014297;28;47900;-71
2021/07/01 05:15:04;;;;;;;;;19.00;16.00;;;;;16.36;74.41;101476.78;5015182;28;45447;-71
2021/07/01 05:17:30;;;;;;;;;20.67;13.67;;;;;16.39;74.17;101481.81;5015692;28;45576;-70
2021/07/01 05:19:56;;;;;;;;;19.00;16.67;;;;;16.45;73.99;101472.47;5015333;28;45721;-71
2021/07/01 05:22:21;;;;;;;;;18.33;14.67;;;;;16.50;73.91;101481.72;5015212;28;46346;-71
2021/07/01 05:24:48;;;;;;;;;13.33;11.33;;;;;16.55;73.96;101478.63;5015230;28;45566;-71
2021/07/01 05:27:13;;;;;;;;;15.33;13.33;;;;;16.62;73.92;101473.66;5016154;28;45326;-71
2021/07/01 05:29:39;;;;;;;;;18.67;18.00;;;;;16.62;73.51;101466.53;5015137;28;45385;-71
2021/07/01 05:32:05;;;;;;;;;17.00;14.67;;;;;16.71;73.41;101479.94;5013125;28;46369;-71
2021/07/01 05:34:31;;;;;;;;;15.33;13.67;;;;;16.73;73.33;101480.66;5015210;28;45550;-71
2021/07/01 05:36:56;;;;;;;;;14.67;13.00;;;;;16.78;73.17;101483.75;5015563;28;45392;-72
2021/07/01 05:39:21;;;;;;;;;17.67;15.33;;;;;16.81;73.07;101486.97;5018300;28;45325;-71
2021/07/01 05:41:47;;;;;;;;;20.67;19.00;;;;;16.86;72.85;101481.22;5020876;28;46312;-71
2021/07/01 05:44:12;;;;;;;;;20.33;17.00;;;;;16.91;72.74;101488.84;5038000;28;45392;-71
2021/07/01 05:46:38;;;;;;;;;24.33;19.67;;;;;16.97;72.70;101493.59;5038156;28;45385;-71
2021/07/01 05:49:03;;;;;;;;;22.67;17.00;;;;;17.02;72.21;101491.38;5038226;28;45199;-71
2021/07/01 05:51:31;;;;;;;;;24.00;18.33;;;;;17.09;72.04;101492.47;5038145;28;46063;-72
2021/07/01 05:56:21;;;;;;;;;25.33;20.00;;;;;17.31;71.78;101491.38;5037753;28;45611;-71
2021/07/01 05:58:47;;;;;;;;;24.00;19.67;;;;;17.62;71.52;101499.19;5037481;28;45434;-69
2021/07/01 06:01:12;;;;;;;;;28.67;22.00;;;;;18.07;70.66;101497.75;5035144;28;47823;-70
2021/07/01 06:03:38;;;;;;;;;20.67;16.00;;;;;18.53;70.17;101497.03;5038062;28;45425;-71
2021/07/01 06:06:10;;;;;;;;;18.00;17.67;;;;;18.75;67.55;101491.28;5029514;28;45542;-69
2021/07/01 06:08:36;;;;;;;;;18.33;15.67;;;;;18.75;67.30;101493.13;5018477;28;45407;-70
2021/07/01 06:11:05;;;;;;;;;18.67;16.33;;;;;18.68;66.85;101494.69;5017429;28;45505;-71
2021/07/01 06:13:31;;;;;;;;;24.00;19.33;;;;;18.58;67.11;101492.91;5017536;28;45356;-70
2021/07/01 06:15:57;;;;;;;;;15.33;13.00;;;;;18.56;67.28;101508.19;5017857;28;45266;-68
2021/07/01 06:18:23;;;;;;;;;19.33;14.67;;;;;18.54;67.06;101499.53;5017727;28;45419;-68
2021/07/01 06:20:50;;;;;;;;;16.33;12.33;;;;;18.52;66.23;101509.47;5017372;28;46495;-68
2021/07/01 06:23:16;;;;;;;;;15.00;15.00;;;;;18.47;66.61;101504.59;5017809;28;45495;-69
2021/07/01 06:25:42;;;;;;;;;17.67;14.67;;;;;18.40;66.98;101514.13;5017456;28;45590;-70
2021/07/01 06:28:12;;;;;;;;;14.67;14.00;;;;;18.38;67.36;101518.75;5028056;28;45449;-69
2021/07/01 06:30:40;;;;;;;;;15.00;12.00;;;;;18.34;67.31;101508.56;5037756;28;46189;-69
2021/07/01 06:33:06;;;;;;;;;17.67;14.33;;;;;18.34;66.65;101509.41;5036185;28;45411;-69
2021/07/01 06:35:32;;;;;;;;;16.67;12.33;;;;;18.35;67.20;101518.22;5034804;28;45356;-70
2021/07/01 06:38:02;;;;;;;;;15.33;13.00;;;;;18.35;67.10;101510.25;5036303;28;45432;-69
2021/07/01 06:40:34;;;;;;;;;19.33;17.67;;;;;18.39;66.75;101514.28;5035989;28;46612;-70
2021/07/01 06:43:04;;;;;;;;;23.33;18.33;;;;;18.41;66.51;101507.00;5036408;28;45561;-70
2021/07/01 06:45:31;;;;;;;;;18.00;16.33;;;;;18.43;66.75;101518.34;5025521;28;45402;-71
2021/07/01 06:47:57;;;;;;;;;14.00;11.67;;;;;18.39;66.99;101512.47;5016439;28;45306;-71
2021/07/01 06:50:28;;;;;;;;;16.33;14.67;;;;;18.36;66.25;101512.75;5015651;28;46354;-71
2021/07/01 06:52:56;;;;;;;;;15.33;13.00;;;;;18.32;66.55;101514.03;5015886;28;45374;-70
2021/07/01 06:55:22;;;;;;;;;16.33;15.00;;;;;18.37;66.33;101510.94;5015795;28;45410;-71
2021/07/01 06:57:48;;;;;;;;;10.67;10.67;;;;;18.42;65.87;101509.53;5016090;28;45468;-69
2021/07/01 07:00:16;;;;;;;;;15.00;11.33;;;;;18.50;65.98;101511.47;5015898;28;45465;-71
2021/07/01 07:02:41;;;;;;;;;14.33;12.00;;;;;18.61;65.64;101513.91;5016849;28;45482;-70
2021/07/01 07:05:10;;;;;;;;;11.00;8.00;;;;;18.70;65.31;101508.69;5031665;28;45450;-70
2021/07/01 07:07:36;;;;;;;;;12.00;10.00;;;;;18.78;64.99;101519.44;5015632;28;45437;-72
2021/07/01 07:10:05;;;;;;;;;12.67;12.67;;;;;18.84;64.68;101521.50;5015246;28;45366;-70
2021/07/01 07:12:36;;;;;;;;;9.67;9.00;;;;;18.88;64.76;101522.88;5015731;28;45328;-71
2021/07/01 07:15:02;;;;;;;;;14.00;11.00;;;;;18.93;63.95;101525.94;5015615;28;45414;-70
2021/07/01 07:17:29;;;;;;;;;9.67;9.00;;;;;19.02;63.60;101528.69;5015846;28;45454;-72
2021/07/01 07:20:00;;;;;;;;;14.00;9.00;;;;;19.06;63.39;101525.59;5014442;28;46995;-73
2021/07/01 07:22:30;;;;;;;;;12.00;10.33;;;;;19.12;63.28;101526.81;5016021;28;45381;-71
2021/07/01 07:25:01;;;;;;;;;13.00;8.00;;;;;19.18;63.26;101518.22;5015496;28;45411;-72
2021/07/01 07:27:29;;;;;;;;;9.33;9.00;;;;;19.31;63.28;101533.00;5015945;28;45403;-71
2021/07/01 07:29:55;;;;;;;;;13.33;11.33;;;;;19.37;63.25;101537.69;5015622;28;45485;-72
2021/07/01 07:32:26;;;;;;;;;8.00;7.00;;;;;19.42;62.82;101532.75;4970092;28;1265364;-72
2021/07/01 07:34:52;;;;;;;;;12.33;12.33;;;;;19.52;61.46;101524.69;5017260;28;45438;-72
2021/07/01 07:37:18;;;;;;;;;11.00;11.00;;;;;19.53;62.27;101524.53;5019923;28;45508;-70
2021/07/01 07:39:45;;;;;;;;;13.00;11.33;;;;;19.56;62.24;101526.88;5016133;28;46449;-69
2021/07/01 07:42:11;;;;;;;;;11.00;9.00;;;;;19.60;62.18;101528.28;5016284;28;45411;-69
2021/07/01 07:44:39;;;;;;;;;11.00;10.00;;;;;19.63;61.67;101527.94;5016698;28;45374;-69
2021/07/01 07:47:06;;;;;;;;;12.00;11.67;;;;;19.68;62.64;101523.97;5016453;28;45547;-69
2021/07/01 07:49:31;;;;;;;;;14.67;11.00;;;;;19.73;62.23;101525.22;5016215;28;46149;-69
2021/07/01 07:52:04;;;;;;;;;12.33;11.00;;;;;19.67;61.13;101530.28;5017167;28;45447;-71
2021/07/01 07:54:34;;;;;;;;;11.00;10.67;;;;;19.59;61.98;101531.06;5034797;28;45448;-70
2021/07/01 07:57:00;;;;;;;;;8.33;8.00;;;;;19.61;62.31;101529.09;5035224;28;45481;-72
2021/07/01 07:59:29;;;;;;;;;16.33;13.00;;;;;19.68;61.80;101530.16;5018360;28;46525;-70
2021/07/01 08:01:58;;;;;;;;;14.00;12.33;;;;;19.68;62.31;101527.50;5029819;28;45431;-71
2021/07/01 08:04:26;;;;;;;;;13.67;11.00;;;;;19.71;62.61;101529.84;5014215;28;45450;-71
2021/07/01 08:06:54;;;;;;;;;11.00;9.33;;;;;19.71;61.24;101527.19;5003175;28;45430;-71
2021/07/01 08:09:23;;;;;;;;;13.67;13.67;;;;;19.68;61.14;101534.63;5030907;28;47581;-70
2021/07/01 08:11:54;;;;;;;;;14.67;10.33;;;;;19.68;61.32;101530.16;5016157;28;45401;-71
2021/07/01 08:14:21;;;;;;;;;10.00;9.00;;;;;19.63;62.06;101537.78;5015006;28;45267;-71
2021/07/01 08:16:47;;;;;;;;;14.00;12.33;;;;;19.62;61.28;101531.59;5017598;28;45410;-72
2021/07/01 08:19:13;;;;;;;;;14.67;12.00;;;;;19.60;61.24;101525.59;5033894;28;47166;-72
2021/07/01 08:21:38;;;;;;;;;12.67;11.00;;;;;19.62;61.22;101520.94;5018600;28;45412;-72
2021/07/01 08:24:06;;;;;;;;;11.00;11.00;;;;;19.71;60.85;101518.38;5016176;28;45403;-68
2021/07/01 08:26:32;;;;;;;;;15.33;12.00;;;;;19.76;60.98;101516.06;5016113;28;45407;-65
2021/07/01 08:28:58;;;;;;;;;14.67;14.00;;;;;19.77;61.17;101509.72;5015814;28;46421;-66
2021/07/01 08:31:23;;;;;;;;;15.67;12.67;;;;;19.79;60.47;101505.09;5014502;28;45272;-66
2021/07/01 08:33:50;;;;;;;;;12.67;12.00;;;;;19.78;61.03;101503.41;5015906;28;45397;-66
2021/07/01 08:36:16;;;;;;;;;13.00;13.00;;;;;19.85;61.06;101506.31;5021624;28;45297;-65
2021/07/01 08:38:43;;;;;;;;;15.00;13.00;;;;;19.89;61.12;101503.19;5021540;28;46031;-66
2021/07/01 08:41:15;;;;;;;;;15.67;13.33;;;;;19.97;59.82;101509.56;5034779;28;45437;-66
2021/07/01 08:43:49;;;;;;;;;16.00;13.00;;;;;20.05;60.50;101510.44;5019751;28;45513;-67
2021/07/01 08:46:22;;;;;;;;;16.67;14.00;;;;;20.16;59.96;101512.03;5016267;28;45368;-64
2021/07/01 08:49:05;;;;;;;;;16.00;14.33;;;;;20.31;59.68;101509.59;5029592;28;46230;-68
2021/07/01 08:51:39;;;;;;;;;24.33;22.33;;;;;20.46;58.34;101504.50;5017808;28;45446;-68
2021/07/01 08:54:26;;;;;;;;;22.67;14.33;;;;;20.61;58.86;101500.22;5015573;28;45442;-68
2021/07/01 08:56:55;;;;;;;;;18.33;16.00;;;;;20.75;58.54;101504.13;5012374;28;45538;-66
2021/07/01 08:59:24;;;;;;;;;18.00;13.00;;;;;20.77;57.75;101498.63;5020463;28;46289;-67
2021/07/01 09:01:56;;;;;;;;;21.67;16.67;;;;;20.77;57.84;101510.16;5028623;28;45410;-69
2021/07/01 09:04:49;;;;;;;;;18.33;16.67;;;;;20.83;57.79;101507.81;5018352;28;45328;-69
2021/07/01 09:07:21;;;;;;;;;25.67;21.00;;;;;20.88;58.47;101505.50;5025667;28;45419;-65
2021/07/01 09:09:53;;;;;;;;;21.67;17.33;;;;;20.96;59.05;101504.69;5025607;28;46835;-65
2021/07/01 09:12:27;;;;;;;;;20.67;18.67;;;;;21.07;58.25;101499.88;5024984;28;45363;-68
2021/07/01 09:15:10;;;;;;;;;19.33;16.00;;;;;21.19;57.55;101504.91;5034704;28;45466;-69
2021/07/01 09:17:38;;;;;;;;;14.00;14.00;;;;;21.30;57.80;101504.56;5022027;28;45324;-69
2021/07/01 09:20:06;;;;;;;;;19.00;17.33;;;;;21.35;56.50;101507.56;5014513;28;46380;-67
2021/07/01 09:22:32;;;;;;;;;17.33;15.33;;;;;21.37;56.91;101504.75;5020609;28;45494;-65
2021/07/01 09:24:58;;;;;;;;;18.00;17.33;;;;;21.41;56.71;101508.75;5033940;28;45416;-65
2021/07/01 09:27:26;;;;;;;;;24.67;20.00;;;;;21.48;56.74;101506.25;5024602;28;45620;-68
2021/07/01 09:29:53;;;;;;;;;17.00;16.33;;;;;21.53;56.66;101504.72;5027186;28;46207;-67
2021/07/01 09:32:21;;;;;;;;;21.00;18.67;;;;;21.67;56.37;101507.78;5032614;28;45778;-66
2021/07/01 09:34:48;;;;;;;;;20.00;16.00;;;;;21.81;56.56;101504.44;5034447;28;45430;-66
2021/07/01 09:37:14;;;;;;;;;17.00;15.33;;;;;21.84;55.36;101503.25;5028118;28;45401;-65
2021/07/01 09:39:40;;;;;;;;;20.00;19.67;;;;;21.89;55.91;101509.75;5028649;28;46460;-65
2021/07/01 09:42:08;;;;;;;;;24.33;18.00;;;;;21.93;55.81;101505.72;5022607;28;45369;-65
2021/07/01 09:44:35;;;;;;;;;24.33;20.33;;;;;21.95;54.94;101507.41;5021440;28;46120;-68
2021/07/01 09:47:05;;;;;;;;;25.67;25.00;;;;;21.92;52.89;101509.44;5022275;28;45644;-66
2021/07/01 09:49:33;;;;;;;;;25.67;19.00;;;;;21.91;55.73;101507.75;5027652;28;46567;-66
2021/07/01 09:52:05;;;;;;;;;18.67;16.00;;;;;22.01;56.54;101506.72;5014620;28;45486;-64
2021/07/01 09:54:32;;;;;;;;;23.00;20.00;;;;;22.12;55.68;101518.91;5019331;28;45470;-69
2021/07/01 09:57:04;;;;;;;;;18.33;15.67;;;;;22.16;51.66;101514.88;5026080;28;45461;-67
2021/07/01 09:59:33;;;;;;;;;18.00;16.00;;;;;22.09;53.76;101523.59;5023504;28;48064;-66
2021/07/01 10:02:19;;;;;;;;;14.67;13.33;;;;;22.08;53.81;101527.28;5027426;28;45460;-65
2021/07/01 10:04:45;;;;;;;;;20.33;14.00;;;;;22.09;53.49;101523.59;5011341;28;45463;-66
2021/07/01 10:07:12;;;;;;;;;14.33;12.00;;;;;22.07;52.02;101508.72;4999216;28;45515;-68
2021/07/01 10:09:37;;;;;;;;;17.00;15.00;;;;;22.08;53.74;101505.03;5015288;28;46240;-66
2021/07/01 10:12:16;;;;;;;;;15.67;14.33;;;;;22.15;53.88;101507.88;5027230;28;45414;-76
2021/07/01 10:14:42;;;;;;;;;18.67;15.67;;;;;22.25;54.68;101503.16;5020276;28;45535;-70
2021/07/01 10:17:12;;;;;;;;;22.00;13.33;;;;;22.34;54.65;101506.63;5030129;28;45549;-73
2021/07/01 10:19:38;;;;;;;;;17.00;16.33;;;;;22.41;54.11;101513.81;5033122;28;45516;-71
2021/07/01 10:22:07;;;;;;;;;15.67;15.67;;;;;22.40;54.14;101509.47;5014954;28;45347;-75
2021/07/01 10:24:46;;;;;;;;;20.67;18.33;;;;;22.41;53.82;101507.63;5027020;28;45292;-71
2021/07/01 10:27:26;;;;;;;;;18.00;16.00;;;;;22.42;53.82;101512.00;5017576;28;45445;-71
2021/07/01 10:29:56;;;;;;;;;16.67;15.33;;;;;22.43;54.80;101508.28;5017694;28;45400;-73
2021/07/01 10:32:44;;;;;;;;;21.00;17.67;;;;;22.51;54.53;101513.63;5017048;28;45787;-71
2021/07/01 10:35:23;;;;;;;;;20.33;17.00;;;;;22.56;54.72;101507.72;5025137;28;45599;-71
2021/07/01 10:38:16;;;;;;;;;20.67;19.00;;;;;22.60;55.02;101505.53;5026955;28;45780;-71
2021/07/01 10:40:45;;;;;;;;;20.67;19.00;;;;;22.63;53.90;101502.53;5028623;28;46242;-70
2021/07/01 10:43:13;;;;;;;;;20.67;18.00;;;;;22.66;54.47;101510.22;5028134;28;45526;-75
2021/07/01 10:45:52;;;;;;;;;18.33;16.33;;;;;22.68;54.71;101508.22;5023534;28;45386;-72
2021/07/01 10:48:20;;;;;;;;;26.00;24.00;;;;;22.66;54.70;101508.34;5029266;28;45379;-71
2021/07/01 10:50:47;;;;;;;;;24.33;22.33;;;;;22.60;53.59;101516.25;5003899;28;45481;-72
2021/07/01 10:53:51;;;;;;;;;28.33;22.67;;;;;22.44;52.55;101515.31;5018298;28;45379;-73
2021/07/01 10:56:17;;;;;;;;;23.00;19.67;;;;;22.37;55.02;101517.84;5022354;28;45505;-69
2021/07/01 10:58:53;;;;;;;;;26.33;20.33;;;;;22.24;55.36;101513.00;5026627;28;45495;-71
2021/07/01 11:01:33;;;;;;;;;22.33;20.67;;;;;22.16;55.54;101523.75;5034368;28;45817;-73
2021/07/01 11:04:17;;;;;;;;;20.67;20.33;;;;;22.04;54.87;101515.25;5032441;28;45465;-70
2021/07/01 11:06:55;;;;;;;;;26.33;22.33;;;;;21.98;56.17;101515.94;5014943;28;45538;-72
2021/07/01 11:09:21;;;;;;;;;22.33;20.67;;;;;21.89;55.50;101515.09;5015277;28;45470;-73
2021/07/01 11:11:46;;;;;;;;;22.00;19.33;;;;;21.79;55.73;101514.44;5015219;28;45450;-74
2021/07/01 11:14:14;;;;;;;;;18.33;18.33;;;;;21.73;56.02;101517.78;5028137;28;45495;-73
2021/07/01 11:16:41;;;;;;;;;23.67;19.67;;;;;21.66;55.77;101517.63;5034042;28;45609;-73